sensor_id;sensor_type;location;lat;lon;timestamp;P1;durP1;ratioP1;P2;durP2;ratioP2
63953;SDS011;50128;52.094;5.232;2022-09-25T00:01:37;9.21;;;3.3;;
63953;SDS011;50128;52.094;5.232;2022-09-25T00:03:15;6.5;;;3.2;;
63953;SDS011;50128;52.094;5.232;2022-09-25T00:04:52;7.0;;;3.2;;
63953;SDS011;50128;52.094;5.232;2022-09-25T00:08:08;7.9;;;3.1;;
63953;SDS011;50128;52.094;5.232;2022-09-25T00:09:45;5.6;;;2.9;;
63953;SDS011;50128;52.094;5.232;2022-09-25T00:11:23;5.6;;;2.9;;
63953;SDS011;50128;52.094;5.232;2022-09-25T00:13:02;6.4;;;3.7;;
63953;SDS011;50128;52.094;5.232;2022-09-25T00:16:15;6.2;;;3.7;;
63953;SDS011;50128;52.094;5.232;2022-09-25T00:17:54;7.6;;;3.9;;
63953;SDS011;50128;52.094;5.232;2022-09-25T00:20:02;7.6;;;3.7;;
63953;SDS011;50128;52.094;5.232;2022-09-25T00:21:40;6.8;;;3.6;;
63953;SDS011;50128;52.094;5.232;2022-09-25T00:23:17;5.8;;;3.5;;
63953;SDS011;50128;52.094;5.232;2022-09-25T00:26:30;6.5;;;3.5;;
63953;SDS011;50128;52.094;5.232;2022-09-25T00:28:09;8.1;;;4.1;;
63953;SDS011;50128;52.094;5.232;2022-09-25T00:29:46;7.0;;;3.8;;
63953;SDS011;50128;52.094;5.232;2022-09-25T00:33:00;9.5;;;4.41;;
63953;SDS011;50128;52.094;5.232;2022-09-25T00:34:37;7.9;;;4.1;;
63953;SDS011;50128;52.094;5.232;2022-09-25T00:36:15;7.1;;;3.7;;
63953;SDS011;50128;52.094;5.232;2022-09-25T00:39:28;6.8;;;3.7;;
63953;SDS011;50128;52.094;5.232;2022-09-25T00:41:06;9.31;;;4.1;;
63953;SDS011;50128;52.094;5.232;2022-09-25T00:42:43;6.1;;;3.0;;
63953;SDS011;50128;52.094;5.232;2022-09-25T00:44:53;8.5;;;3.4;;
63953;SDS011;50128;52.094;5.232;2022-09-25T00:46:33;8.0;;;3.5;;
63953;SDS011;50128;52.094;5.232;2022-09-25T00:49:50;8.31;;;3.8;;
63953;SDS011;50128;52.094;5.232;2022-09-25T00:51:31;7.4;;;3.8;;
63953;SDS011;50128;52.094;5.232;2022-09-25T00:53:13;9.5;;;3.7;;
63953;SDS011;50128;52.094;5.232;2022-09-25T00:54:54;9.0;;;3.8;;
63953;SDS011;50128;52.094;5.232;2022-09-25T00:58:20;7.2;;;4.0;;
63953;SDS011;50128;52.094;5.232;2022-09-25T01:00:00;7.0;;;3.8;;
63953;SDS011;50128;52.094;5.232;2022-09-25T01:01:42;8.5;;;4.0;;
63953;SDS011;50128;52.094;5.232;2022-09-25T01:03:20;6.7;;;3.6;;
63953;SDS011;50128;52.094;5.232;2022-09-25T01:06:40;6.7;;;3.7;;
63953;SDS011;50128;52.094;5.232;2022-09-25T01:08:18;7.9;;;4.1;;
63953;SDS011;50128;52.094;5.232;2022-09-25T01:10:01;8.2;;;3.9;;
63953;SDS011;50128;52.094;5.232;2022-09-25T01:11:39;6.9;;;3.9;;
63953;SDS011;50128;52.094;5.232;2022-09-25T01:14:52;7.8;;;4.0;;
63953;SDS011;50128;52.094;5.232;2022-09-25T01:16:34;6.6;;;3.7;;
63953;SDS011;50128;52.094;5.232;2022-09-25T01:18:21;7.1;;;4.0;;
63953;SDS011;50128;52.094;5.232;2022-09-25T01:20:13;5.2;;;3.4;;
63953;SDS011;50128;52.094;5.232;2022-09-25T01:22:09;8.0;;;3.7;;
63953;SDS011;50128;52.094;5.232;2022-09-25T01:26:10;7.0;;;3.3;;
63953;SDS011;50128;52.094;5.232;2022-09-25T01:30:05;6.4;;;3.5;;
63953;SDS011;50128;52.094;5.232;2022-09-25T01:31:45;8.81;;;3.6;;
63953;SDS011;50128;52.094;5.232;2022-09-25T01:33:33;6.8;;;3.6;;
63953;SDS011;50128;52.094;5.232;2022-09-25T01:35:14;6.2;;;3.0;;
63953;SDS011;50128;52.094;5.232;2022-09-25T01:37:04;6.2;;;3.0;;
63953;SDS011;50128;52.094;5.232;2022-09-25T01:38:46;7.0;;;3.4;;
63953;SDS011;50128;52.094;5.232;2022-09-25T01:42:15;6.0;;;3.2;;
63953;SDS011;50128;52.094;5.232;2022-09-25T01:43:56;8.1;;;3.4;;
63953;SDS011;50128;52.094;5.232;2022-09-25T01:45:38;6.0;;;3.0;;
63953;SDS011;50128;52.094;5.232;2022-09-25T01:47:23;6.8;;;3.2;;
63953;SDS011;50128;52.094;5.232;2022-09-25T01:49:04;5.6;;;3.2;;
63953;SDS011;50128;52.094;5.232;2022-09-25T01:52:32;5.9;;;3.1;;
63953;SDS011;50128;52.094;5.232;2022-09-25T01:54:17;5.5;;;3.2;;
63953;SDS011;50128;52.094;5.232;2022-09-25T01:56:00;5.9;;;3.2;;
63953;SDS011;50128;52.094;5.232;2022-09-25T01:57:42;5.8;;;3.2;;
63953;SDS011;50128;52.094;5.232;2022-09-25T02:01:13;5.5;;;3.1;;
63953;SDS011;50128;52.094;5.232;2022-09-25T02:02:56;8.2;;;3.3;;
63953;SDS011;50128;52.094;5.232;2022-09-25T02:04:44;6.3;;;3.0;;
63953;SDS011;50128;52.094;5.232;2022-09-25T02:06:28;6.0;;;3.5;;
63953;SDS011;50128;52.094;5.232;2022-09-25T02:08:09;6.9;;;3.2;;
63953;SDS011;50128;52.094;5.232;2022-09-25T02:11:36;5.11;;;2.9;;
63953;SDS011;50128;52.094;5.232;2022-09-25T02:13:18;5.6;;;3.1;;
63953;SDS011;50128;52.094;5.232;2022-09-25T02:15:00;5.2;;;2.8;;
63953;SDS011;50128;52.094;5.232;2022-09-25T02:16:43;5.6;;;2.9;;
63953;SDS011;50128;52.094;5.232;2022-09-25T02:21:23;5.2;;;3.0;;
63953;SDS011;50128;52.094;5.232;2022-09-25T02:23:20;5.9;;;3.6;;
63953;SDS011;50128;52.094;5.232;2022-09-25T02:24:59;6.1;;;3.0;;
63953;SDS011;50128;52.094;5.232;2022-09-25T02:26:42;5.6;;;2.7;;
63953;SDS011;50128;52.094;5.232;2022-09-25T02:29:57;5.6;;;3.1;;
63953;SDS011;50128;52.094;5.232;2022-09-25T02:31:35;6.0;;;3.2;;
63953;SDS011;50128;52.094;5.232;2022-09-25T02:36:28;6.1;;;3.2;;
63953;SDS011;50128;52.094;5.232;2022-09-25T02:38:05;5.4;;;3.2;;
63953;SDS011;50128;52.094;5.232;2022-09-25T02:39:41;6.2;;;3.3;;
63953;SDS011;50128;52.094;5.232;2022-09-25T02:41:26;6.0;;;3.3;;
63953;SDS011;50128;52.094;5.232;2022-09-25T02:45:13;6.0;;;3.3;;
63953;SDS011;50128;52.094;5.232;2022-09-25T02:47:07;5.3;;;3.3;;
63953;SDS011;50128;52.094;5.232;2022-09-25T02:48:58;5.3;;;3.4;;
63953;SDS011;50128;52.094;5.232;2022-09-25T02:50:45;5.11;;;3.3;;
63953;SDS011;50128;52.094;5.232;2022-09-25T02:52:31;5.7;;;3.5;;
63953;SDS011;50128;52.094;5.232;2022-09-25T02:54:20;6.5;;;3.7;;
63953;SDS011;50128;52.094;5.232;2022-09-25T02:56:04;5.5;;;3.3;;
63953;SDS011;50128;52.094;5.232;2022-09-25T02:59:31;5.5;;;3.7;;
63953;SDS011;50128;52.094;5.232;2022-09-25T03:01:15;7.0;;;3.6;;
63953;SDS011;50128;52.094;5.232;2022-09-25T03:02:55;6.4;;;3.8;;
63953;SDS011;50128;52.094;5.232;2022-09-25T03:04:34;5.5;;;3.5;;
63953;SDS011;50128;52.094;5.232;2022-09-25T03:08:55;6.1;;;3.8;;
63953;SDS011;50128;52.094;5.232;2022-09-25T03:10:35;5.5;;;3.7;;
63953;SDS011;50128;52.094;5.232;2022-09-25T03:12:13;5.6;;;3.1;;
63953;SDS011;50128;52.094;5.232;2022-09-25T03:13:54;5.8;;;3.6;;
63953;SDS011;50128;52.094;5.232;2022-09-25T03:15:34;5.5;;;3.6;;
63953;SDS011;50128;52.094;5.232;2022-09-25T03:17:10;6.1;;;3.5;;
63953;SDS011;50128;52.094;5.232;2022-09-25T03:20:24;7.5;;;3.7;;
63953;SDS011;50128;52.094;5.232;2022-09-25T03:22:01;7.0;;;3.8;;
63953;SDS011;50128;52.094;5.232;2022-09-25T03:23:38;5.8;;;3.3;;
63953;SDS011;50128;52.094;5.232;2022-09-25T03:26:53;6.3;;;3.4;;
63953;SDS011;50128;52.094;5.232;2022-09-25T03:28:29;6.1;;;3.5;;
63953;SDS011;50128;52.094;5.232;2022-09-25T03:30:07;6.7;;;3.7;;
63953;SDS011;50128;52.094;5.232;2022-09-25T03:31:44;5.9;;;3.3;;
63953;SDS011;50128;52.094;5.232;2022-09-25T03:34:57;6.7;;;3.7;;
63953;SDS011;50128;52.094;5.232;2022-09-25T03:36:34;5.6;;;3.8;;
63953;SDS011;50128;52.094;5.232;2022-09-25T03:38:11;5.5;;;3.5;;
63953;SDS011;50128;52.094;5.232;2022-09-25T03:41:25;5.2;;;3.3;;
63953;SDS011;50128;52.094;5.232;2022-09-25T03:43:03;7.1;;;3.8;;
63953;SDS011;50128;52.094;5.232;2022-09-25T03:44:39;5.7;;;3.5;;
63953;SDS011;50128;52.094;5.232;2022-09-25T03:46:17;5.9;;;3.7;;
63953;SDS011;50128;52.094;5.232;2022-09-25T03:49:32;6.8;;;3.8;;
63953;SDS011;50128;52.094;5.232;2022-09-25T03:51:09;5.11;;;3.6;;
63953;SDS011;50128;52.094;5.232;2022-09-25T03:52:46;5.5;;;3.7;;
63953;SDS011;50128;52.094;5.232;2022-09-25T03:55:58;5.9;;;3.6;;
63953;SDS011;50128;52.094;5.232;2022-09-25T03:57:35;7.7;;;3.7;;
63953;SDS011;50128;52.094;5.232;2022-09-25T03:59:11;5.8;;;3.9;;
63953;SDS011;50128;52.094;5.232;2022-09-25T04:02:23;5.2;;;3.6;;
63953;SDS011;50128;52.094;5.232;2022-09-25T04:04:00;5.5;;;3.6;;
63953;SDS011;50128;52.094;5.232;2022-09-25T04:05:38;6.4;;;3.6;;
63953;SDS011;50128;52.094;5.232;2022-09-25T04:07:16;7.1;;;3.9;;
63953;SDS011;50128;52.094;5.232;2022-09-25T04:10:29;7.1;;;4.41;;
63953;SDS011;50128;52.094;5.232;2022-09-25T04:12:07;5.7;;;3.9;;
63953;SDS011;50128;52.094;5.232;2022-09-25T04:13:45;6.2;;;4.2;;
63953;SDS011;50128;52.094;5.232;2022-09-25T04:16:59;6.9;;;4.2;;
63953;SDS011;50128;52.094;5.232;2022-09-25T04:18:35;6.9;;;4.3;;
63953;SDS011;50128;52.094;5.232;2022-09-25T04:20:12;7.9;;;4.3;;
63953;SDS011;50128;52.094;5.232;2022-09-25T04:21:48;9.0;;;4.5;;
63953;SDS011;50128;52.094;5.232;2022-09-25T04:25:03;6.3;;;4.2;;
63953;SDS011;50128;52.094;5.232;2022-09-25T04:26:39;7.1;;;4.5;;
63953;SDS011;50128;52.094;5.232;2022-09-25T04:28:16;8.0;;;4.8;;
63953;SDS011;50128;52.094;5.232;2022-09-25T04:31:30;7.5;;;4.91;;
63953;SDS011;50128;52.094;5.232;2022-09-25T04:34:11;9.4;;;4.61;;
63953;SDS011;50128;52.094;5.232;2022-09-25T04:35:47;7.0;;;4.5;;
63953;SDS011;50128;52.094;5.232;2022-09-25T04:37:25;6.5;;;4.5;;
63953;SDS011;50128;52.094;5.232;2022-09-25T04:39:01;9.0;;;4.8;;
63953;SDS011;50128;52.094;5.232;2022-09-25T04:40:39;7.2;;;4.7;;
63953;SDS011;50128;52.094;5.232;2022-09-25T04:43:53;6.7;;;4.0;;
63953;SDS011;50128;52.094;5.232;2022-09-25T04:45:31;6.2;;;4.41;;
63953;SDS011;50128;52.094;5.232;2022-09-25T04:47:09;7.4;;;4.3;;
63953;SDS011;50128;52.094;5.232;2022-09-25T04:50:21;6.8;;;4.7;;
63953;SDS011;50128;52.094;5.232;2022-09-25T04:51:59;6.2;;;4.61;;
63953;SDS011;50128;52.094;5.232;2022-09-25T04:53:36;7.1;;;4.8;;
63953;SDS011;50128;52.094;5.232;2022-09-25T04:56:48;7.0;;;4.61;;
63953;SDS011;50128;52.094;5.232;2022-09-25T04:58:24;8.2;;;5.11;;
63953;SDS011;50128;52.094;5.232;2022-09-25T05:00:02;7.3;;;4.61;;
63953;SDS011;50128;52.094;5.232;2022-09-25T05:01:41;7.3;;;4.2;;
63953;SDS011;50128;52.094;5.232;2022-09-25T05:04:53;6.3;;;4.5;;
63953;SDS011;50128;52.094;5.232;2022-09-25T05:06:29;6.5;;;4.3;;
63953;SDS011;50128;52.094;5.232;2022-09-25T05:08:05;7.4;;;4.41;;
63953;SDS011;50128;52.094;5.232;2022-09-25T05:11:19;5.6;;;4.0;;
63953;SDS011;50128;52.094;5.232;2022-09-25T05:12:57;5.7;;;4.0;;
63953;SDS011;50128;52.094;5.232;2022-09-25T05:14:39;5.9;;;4.1;;
63953;SDS011;50128;52.094;5.232;2022-09-25T05:16:16;5.8;;;4.0;;
63953;SDS011;50128;52.094;5.232;2022-09-25T05:19:39;6.3;;;4.3;;
63953;SDS011;50128;52.094;5.232;2022-09-25T05:21:15;6.5;;;4.0;;
63953;SDS011;50128;52.094;5.232;2022-09-25T05:22:52;5.8;;;3.9;;
63953;SDS011;50128;52.094;5.232;2022-09-25T05:26:06;5.7;;;3.9;;
63953;SDS011;50128;52.094;5.232;2022-09-25T05:27:44;7.3;;;4.2;;
63953;SDS011;50128;52.094;5.232;2022-09-25T05:29:21;7.2;;;4.0;;
63953;SDS011;50128;52.094;5.232;2022-09-25T05:30:57;6.6;;;4.1;;
63953;SDS011;50128;52.094;5.232;2022-09-25T05:34:11;6.8;;;3.7;;
63953;SDS011;50128;52.094;5.232;2022-09-25T05:35:48;8.4;;;4.2;;
63953;SDS011;50128;52.094;5.232;2022-09-25T05:37:25;7.2;;;4.3;;
63953;SDS011;50128;52.094;5.232;2022-09-25T05:40:38;5.9;;;3.9;;
63953;SDS011;50128;52.094;5.232;2022-09-25T05:42:15;6.5;;;4.2;;
63953;SDS011;50128;52.094;5.232;2022-09-25T05:43:54;5.8;;;4.0;;
63953;SDS011;50128;52.094;5.232;2022-09-25T05:45:32;7.2;;;4.2;;
63953;SDS011;50128;52.094;5.232;2022-09-25T05:48:44;6.9;;;4.5;;
63953;SDS011;50128;52.094;5.232;2022-09-25T05:50:20;5.6;;;4.0;;
63953;SDS011;50128;52.094;5.232;2022-09-25T05:51:58;7.1;;;4.1;;
63953;SDS011;50128;52.094;5.232;2022-09-25T05:55:10;6.0;;;4.41;;
63953;SDS011;50128;52.094;5.232;2022-09-25T05:56:46;8.71;;;4.1;;
63953;SDS011;50128;52.094;5.232;2022-09-25T05:58:23;6.4;;;4.5;;
63953;SDS011;50128;52.094;5.232;2022-09-25T06:01:38;6.6;;;4.41;;
63953;SDS011;50128;52.094;5.232;2022-09-25T06:03:16;5.8;;;4.41;;
63953;SDS011;50128;52.094;5.232;2022-09-25T06:04:53;7.0;;;4.8;;
63953;SDS011;50128;52.094;5.232;2022-09-25T06:06:30;7.1;;;5.11;;
63953;SDS011;50128;52.094;5.232;2022-09-25T06:09:43;7.4;;;5.5;;
63953;SDS011;50128;52.094;5.232;2022-09-25T06:11:21;9.0;;;5.4;;
63953;SDS011;50128;52.094;5.232;2022-09-25T06:12:58;6.7;;;5.2;;
63953;SDS011;50128;52.094;5.232;2022-09-25T06:16:13;7.4;;;5.5;;
63953;SDS011;50128;52.094;5.232;2022-09-25T06:17:50;7.3;;;5.4;;
63953;SDS011;50128;52.094;5.232;2022-09-25T06:19:28;7.3;;;5.5;;
63953;SDS011;50128;52.094;5.232;2022-09-25T06:21:04;6.2;;;5.0;;
63953;SDS011;50128;52.094;5.232;2022-09-25T06:24:19;8.1;;;5.4;;
63953;SDS011;50128;52.094;5.232;2022-09-25T06:25:58;7.1;;;5.0;;
63953;SDS011;50128;52.094;5.232;2022-09-25T06:27:36;7.1;;;5.2;;
63953;SDS011;50128;52.094;5.232;2022-09-25T06:30:48;6.7;;;5.2;;
63953;SDS011;50128;52.094;5.232;2022-09-25T06:32:25;7.1;;;5.2;;
63953;SDS011;50128;52.094;5.232;2022-09-25T06:34:01;8.2;;;5.4;;
63953;SDS011;50128;52.094;5.232;2022-09-25T06:37:17;8.5;;;6.2;;
63953;SDS011;50128;52.094;5.232;2022-09-25T06:38:54;7.8;;;6.0;;
63953;SDS011;50128;52.094;5.232;2022-09-25T06:40:31;8.2;;;5.8;;
63953;SDS011;50128;52.094;5.232;2022-09-25T06:42:07;8.31;;;5.7;;
63953;SDS011;50128;52.094;5.232;2022-09-25T06:45:25;9.21;;;6.2;;
63953;SDS011;50128;52.094;5.232;2022-09-25T06:47:04;8.5;;;6.0;;
63953;SDS011;50128;52.094;5.232;2022-09-25T06:48:40;9.5;;;6.3;;
63953;SDS011;50128;52.094;5.232;2022-09-25T06:50:17;9.1;;;5.8;;
63953;SDS011;50128;52.094;5.232;2022-09-25T06:53:30;9.31;;;5.9;;
63953;SDS011;50128;52.094;5.232;2022-09-25T06:55:07;9.1;;;6.0;;
63953;SDS011;50128;52.094;5.232;2022-09-25T06:56:43;7.9;;;5.9;;
63953;SDS011;50128;52.094;5.232;2022-09-25T07:00:01;9.31;;;6.0;;
63953;SDS011;50128;52.094;5.232;2022-09-25T07:01:39;6.9;;;5.7;;
63953;SDS011;50128;52.094;5.232;2022-09-25T07:03:49;7.5;;;5.3;;
63953;SDS011;50128;52.094;5.232;2022-09-25T07:05:25;8.4;;;5.8;;
63953;SDS011;50128;52.094;5.232;2022-09-25T07:07:01;6.1;;;4.61;;
63953;SDS011;50128;52.094;5.232;2022-09-25T07:10:15;6.9;;;4.91;;
63953;SDS011;50128;52.094;5.232;2022-09-25T07:11:52;6.6;;;4.8;;
63953;SDS011;50128;52.094;5.232;2022-09-25T07:13:32;6.2;;;4.0;;
63953;SDS011;50128;52.094;5.232;2022-09-25T07:16:47;6.7;;;3.8;;
63953;SDS011;50128;52.094;5.232;2022-09-25T07:18:25;7.5;;;3.6;;
63953;SDS011;50128;52.094;5.232;2022-09-25T07:20:03;7.4;;;4.2;;
63953;SDS011;50128;52.094;5.232;2022-09-25T07:21:40;6.7;;;4.5;;
63953;SDS011;50128;52.094;5.232;2022-09-25T07:24:56;7.2;;;3.9;;
63953;SDS011;50128;52.094;5.232;2022-09-25T07:26:33;6.9;;;3.6;;
63953;SDS011;50128;52.094;5.232;2022-09-25T07:28:13;7.2;;;3.9;;
63953;SDS011;50128;52.094;5.232;2022-09-25T07:31:28;7.0;;;3.3;;
63953;SDS011;50128;52.094;5.232;2022-09-25T07:33:07;6.4;;;3.3;;
63953;SDS011;50128;52.094;5.232;2022-09-25T07:34:45;6.7;;;3.3;;
63953;SDS011;50128;52.094;5.232;2022-09-25T07:36:21;6.6;;;3.1;;
63953;SDS011;50128;52.094;5.232;2022-09-25T07:39:35;5.5;;;2.8;;
63953;SDS011;50128;52.094;5.232;2022-09-25T07:41:12;5.5;;;2.9;;
63953;SDS011;50128;52.094;5.232;2022-09-25T07:42:48;6.3;;;3.1;;
63953;SDS011;50128;52.094;5.232;2022-09-25T07:46:01;8.1;;;4.2;;
63953;SDS011;50128;52.094;5.232;2022-09-25T07:47:37;8.0;;;4.0;;
63953;SDS011;50128;52.094;5.232;2022-09-25T07:49:13;5.9;;;2.8;;
63953;SDS011;50128;52.094;5.232;2022-09-25T07:52:26;4.7;;;2.4;;
63953;SDS011;50128;52.094;5.232;2022-09-25T07:54:03;8.2;;;2.6;;
63953;SDS011;50128;52.094;5.232;2022-09-25T07:55:41;5.2;;;2.21;;
63953;SDS011;50128;52.094;5.232;2022-09-25T07:57:19;4.8;;;2.21;;
63953;SDS011;50128;52.094;5.232;2022-09-25T08:00:32;8.9;;;2.6;;
63953;SDS011;50128;52.094;5.232;2022-09-25T08:02:08;5.7;;;2.4;;
63953;SDS011;50128;52.094;5.232;2022-09-25T08:03:45;4.7;;;1.9;;
63953;SDS011;50128;52.094;5.232;2022-09-25T08:07:00;4.7;;;1.9;;
63953;SDS011;50128;52.094;5.232;2022-09-25T08:08:37;4.61;;;1.9;;
63953;SDS011;50128;52.094;5.232;2022-09-25T08:10:15;4.0;;;1.6;;
63953;SDS011;50128;52.094;5.232;2022-09-25T08:13:30;5.6;;;1.7;;
63953;SDS011;50128;52.094;5.232;2022-09-25T08:15:08;6.8;;;1.8;;
63953;SDS011;50128;52.094;5.232;2022-09-25T08:16:46;4.7;;;1.7;;
63953;SDS011;50128;52.094;5.232;2022-09-25T08:18:23;4.5;;;1.5;;
63953;SDS011;50128;52.094;5.232;2022-09-25T08:21:36;4.2;;;1.6;;
63953;SDS011;50128;52.094;5.232;2022-09-25T08:23:13;4.61;;;1.5;;
63953;SDS011;50128;52.094;5.232;2022-09-25T08:24:50;3.9;;;1.3;;
63953;SDS011;50128;52.094;5.232;2022-09-25T08:28:06;4.8;;;1.6;;
63953;SDS011;50128;52.094;5.232;2022-09-25T08:29:43;5.8;;;1.4;;
63953;SDS011;50128;52.094;5.232;2022-09-25T08:31:19;4.5;;;1.3;;
63953;SDS011;50128;52.094;5.232;2022-09-25T08:32:56;6.0;;;1.4;;
63953;SDS011;50128;52.094;5.232;2022-09-25T08:36:08;4.5;;;1.5;;
63953;SDS011;50128;52.094;5.232;2022-09-25T08:37:47;4.7;;;1.2;;
63953;SDS011;50128;52.094;5.232;2022-09-25T08:39:24;4.8;;;1.4;;
63953;SDS011;50128;52.094;5.232;2022-09-25T08:42:42;4.3;;;1.11;;
63953;SDS011;50128;52.094;5.232;2022-09-25T08:44:22;4.5;;;1.3;;
63953;SDS011;50128;52.094;5.232;2022-09-25T08:49:06;4.61;;;1.3;;
63953;SDS011;50128;52.094;5.232;2022-09-25T08:50:43;4.8;;;1.3;;
63953;SDS011;50128;52.094;5.232;2022-09-25T08:52:21;3.8;;;1.2;;
63953;SDS011;50128;52.094;5.232;2022-09-25T08:53:58;5.6;;;1.3;;
63953;SDS011;50128;52.094;5.232;2022-09-25T08:58:16;4.7;;;0.9;;
63953;SDS011;50128;52.094;5.232;2022-09-25T09:01:41;6.2;;;1.11;;
63953;SDS011;50128;52.094;5.232;2022-09-25T09:03:24;5.2;;;1.11;;
63953;SDS011;50128;52.094;5.232;2022-09-25T09:05:02;3.3;;;0.8;;
63953;SDS011;50128;52.094;5.232;2022-09-25T09:06:45;4.3;;;1.2;;
63953;SDS011;50128;52.094;5.232;2022-09-25T09:08:27;5.9;;;1.5;;
63953;SDS011;50128;52.094;5.232;2022-09-25T09:12:02;4.3;;;0.9;;
63953;SDS011;50128;52.094;5.232;2022-09-25T09:13:48;5.11;;;1.11;;
63953;SDS011;50128;52.094;5.232;2022-09-25T09:15:29;3.3;;;0.9;;
63953;SDS011;50128;52.094;5.232;2022-09-25T09:17:15;4.5;;;0.7;;
63953;SDS011;50128;52.094;5.232;2022-09-25T09:18:56;4.0;;;0.9;;
63953;SDS011;50128;52.094;5.232;2022-09-25T09:22:27;3.7;;;1.11;;
63953;SDS011;50128;52.094;5.232;2022-09-25T09:24:13;4.0;;;0.9;;
63953;SDS011;50128;52.094;5.232;2022-09-25T09:25:55;3.9;;;0.8;;
63953;SDS011;50128;52.094;5.232;2022-09-25T09:27:47;4.8;;;1.2;;
63953;SDS011;50128;52.094;5.232;2022-09-25T09:29:42;3.5;;;0.9;;
63953;SDS011;50128;52.094;5.232;2022-09-25T09:31:31;4.41;;;1.0;;
63953;SDS011;50128;52.094;5.232;2022-09-25T09:35:14;5.0;;;1.2;;
63953;SDS011;50128;52.094;5.232;2022-09-25T09:37:07;5.5;;;0.9;;
63953;SDS011;50128;52.094;5.232;2022-09-25T09:38:55;4.8;;;0.9;;
63953;SDS011;50128;52.094;5.232;2022-09-25T09:40:54;5.9;;;1.2;;
63953;SDS011;50128;52.094;5.232;2022-09-25T09:42:55;4.7;;;1.11;;
63953;SDS011;50128;52.094;5.232;2022-09-25T09:44:43;3.6;;;0.9;;
63953;SDS011;50128;52.094;5.232;2022-09-25T09:46:34;3.3;;;0.8;;
63953;SDS011;50128;52.094;5.232;2022-09-25T09:48:22;4.7;;;1.0;;
63953;SDS011;50128;52.094;5.232;2022-09-25T09:51:59;4.5;;;1.11;;
63953;SDS011;50128;52.094;5.232;2022-09-25T09:53:44;4.7;;;1.2;;
63953;SDS011;50128;52.094;5.232;2022-09-25T10:04:15;4.41;;;1.3;;
63953;SDS011;50128;52.094;5.232;2022-09-25T10:05:55;4.41;;;1.4;;
63953;SDS011;50128;52.094;5.232;2022-09-25T10:07:34;4.61;;;1.3;;
63953;SDS011;50128;52.094;5.232;2022-09-25T10:12:30;4.8;;;1.5;;
63953;SDS011;50128;52.094;5.232;2022-09-25T10:14:10;5.3;;;1.8;;
63953;SDS011;50128;52.094;5.232;2022-09-25T10:15:54;5.7;;;1.5;;
63953;SDS011;50128;52.094;5.232;2022-09-25T10:17:36;6.0;;;1.3;;
63953;SDS011;50128;52.094;5.232;2022-09-25T10:20:56;4.5;;;0.9;;
63953;SDS011;50128;52.094;5.232;2022-09-25T10:22:36;5.5;;;1.4;;
63953;SDS011;50128;52.094;5.232;2022-09-25T10:24:50;4.1;;;1.2;;
63953;SDS011;50128;52.094;5.232;2022-09-25T10:26:28;4.2;;;1.0;;
63953;SDS011;50128;52.094;5.232;2022-09-25T10:28:39;4.41;;;0.8;;
63953;SDS011;50128;52.094;5.232;2022-09-25T10:30:18;5.0;;;1.11;;
63953;SDS011;50128;52.094;5.232;2022-09-25T10:33:34;3.1;;;0.8;;
63953;SDS011;50128;52.094;5.232;2022-09-25T10:35:13;4.5;;;1.11;;
63953;SDS011;50128;52.094;5.232;2022-09-25T10:36:52;3.2;;;0.8;;
63953;SDS011;50128;52.094;5.232;2022-09-25T10:38:32;5.0;;;1.0;;
63953;SDS011;50128;52.094;5.232;2022-09-25T10:42:31;2.7;;;0.8;;
63953;SDS011;50128;52.094;5.232;2022-09-25T10:44:21;3.5;;;0.9;;
63953;SDS011;50128;52.094;5.232;2022-09-25T10:46:05;3.5;;;1.0;;
63953;SDS011;50128;52.094;5.232;2022-09-25T10:50:39;3.0;;;0.9;;
63953;SDS011;50128;52.094;5.232;2022-09-25T10:52:15;3.9;;;0.9;;
63953;SDS011;50128;52.094;5.232;2022-09-25T10:54:09;4.8;;;1.0;;
63953;SDS011;50128;52.094;5.232;2022-09-25T10:55:50;3.5;;;0.6;;
63953;SDS011;50128;52.094;5.232;2022-09-25T10:57:33;2.8;;;0.5;;
63953;SDS011;50128;52.094;5.232;2022-09-25T11:00:56;3.0;;;0.6;;
63953;SDS011;50128;52.094;5.232;2022-09-25T11:02:35;2.8;;;0.7;;
63953;SDS011;50128;52.094;5.232;2022-09-25T11:04:16;2.1;;;0.6;;
63953;SDS011;50128;52.094;5.232;2022-09-25T11:05:57;2.21;;;0.5;;
63953;SDS011;50128;52.094;5.232;2022-09-25T11:07:37;3.5;;;0.6;;
63953;SDS011;50128;52.094;5.232;2022-09-25T11:10:56;2.5;;;0.5;;
63953;SDS011;50128;52.094;5.232;2022-09-25T11:12:34;2.31;;;0.7;;
63953;SDS011;50128;52.094;5.232;2022-09-25T11:14:19;2.31;;;0.8;;
63953;SDS011;50128;52.094;5.232;2022-09-25T11:15:59;3.6;;;0.6;;
63953;SDS011;50128;52.094;5.232;2022-09-25T11:19:18;2.21;;;0.7;;
63953;SDS011;50128;52.094;5.232;2022-09-25T11:21:02;3.1;;;0.8;;
63953;SDS011;50128;52.094;5.232;2022-09-25T11:22:42;2.8;;;0.7;;
63953;SDS011;50128;52.094;5.232;2022-09-25T11:24:24;2.8;;;0.7;;
63953;SDS011;50128;52.094;5.232;2022-09-25T11:27:56;3.2;;;0.5;;
63953;SDS011;50128;52.094;5.232;2022-09-25T11:29:40;3.2;;;0.7;;
63953;SDS011;50128;52.094;5.232;2022-09-25T11:31:24;3.3;;;0.6;;
63953;SDS011;50128;52.094;5.232;2022-09-25T11:33:10;2.0;;;0.5;;
63953;SDS011;50128;52.094;5.232;2022-09-25T11:34:59;2.5;;;0.5;;
63953;SDS011;50128;52.094;5.232;2022-09-25T11:36:55;2.21;;;0.5;;
63953;SDS011;50128;52.094;5.232;2022-09-25T11:41:35;2.0;;;0.5;;
63953;SDS011;50128;52.094;5.232;2022-09-25T11:43:18;2.9;;;0.5;;
63953;SDS011;50128;52.094;5.232;2022-09-25T11:46:56;2.0;;;0.6;;
63953;SDS011;50128;52.094;5.232;2022-09-25T11:48:41;2.4;;;0.5;;
63953;SDS011;50128;52.094;5.232;2022-09-25T11:50:32;2.21;;;0.4;;
63953;SDS011;50128;52.094;5.232;2022-09-25T11:52:20;2.0;;;0.6;;
63953;SDS011;50128;52.094;5.232;2022-09-25T11:54:12;2.9;;;0.6;;
63953;SDS011;50128;52.094;5.232;2022-09-25T11:56:05;2.4;;;0.5;;
63953;SDS011;50128;52.094;5.232;2022-09-25T11:57:57;2.21;;;0.4;;
63953;SDS011;50128;52.094;5.232;2022-09-25T12:01:44;2.8;;;0.5;;
63953;SDS011;50128;52.094;5.232;2022-09-25T12:05:31;1.8;;;0.4;;
63953;SDS011;50128;52.094;5.232;2022-09-25T12:07:26;1.9;;;0.4;;
63953;SDS011;50128;52.094;5.232;2022-09-25T12:09:21;2.0;;;0.4;;
63953;SDS011;50128;52.094;5.232;2022-09-25T12:11:15;1.7;;;0.4;;
63953;SDS011;50128;52.094;5.232;2022-09-25T12:13:10;1.9;;;0.5;;
63953;SDS011;50128;52.094;5.232;2022-09-25T12:15:01;1.8;;;0.6;;
63953;SDS011;50128;52.094;5.232;2022-09-25T12:16:47;1.5;;;0.5;;
63953;SDS011;50128;52.094;5.232;2022-09-25T12:20:31;1.8;;;0.5;;
63953;SDS011;50128;52.094;5.232;2022-09-25T12:22:15;2.31;;;0.4;;
63953;SDS011;50128;52.094;5.232;2022-09-25T12:24:03;2.31;;;0.6;;
63953;SDS011;50128;52.094;5.232;2022-09-25T12:25:58;2.31;;;0.5;;
63953;SDS011;50128;52.094;5.232;2022-09-25T12:27:48;1.7;;;0.4;;
63953;SDS011;50128;52.094;5.232;2022-09-25T12:29:36;2.6;;;0.5;;
63953;SDS011;50128;52.094;5.232;2022-09-25T12:31:34;1.3;;;0.5;;
63953;SDS011;50128;52.094;5.232;2022-09-25T12:35:14;2.0;;;0.4;;
63953;SDS011;50128;52.094;5.232;2022-09-25T12:37:05;2.4;;;0.4;;
63953;SDS011;50128;52.094;5.232;2022-09-25T12:38:54;2.5;;;0.5;;
63953;SDS011;50128;52.094;5.232;2022-09-25T12:40:39;2.6;;;0.4;;
63953;SDS011;50128;52.094;5.232;2022-09-25T12:42:23;2.6;;;0.6;;
63953;SDS011;50128;52.094;5.232;2022-09-25T12:44:15;2.6;;;0.5;;
63953;SDS011;50128;52.094;5.232;2022-09-25T12:45:59;3.5;;;0.7;;
63953;SDS011;50128;52.094;5.232;2022-09-25T12:49:41;2.4;;;0.7;;
63953;SDS011;50128;52.094;5.232;2022-09-25T12:53:11;2.8;;;0.6;;
63953;SDS011;50128;52.094;5.232;2022-09-25T12:55:03;2.8;;;0.5;;
63953;SDS011;50128;52.094;5.232;2022-09-25T12:56:46;1.9;;;0.6;;
63953;SDS011;50128;52.094;5.232;2022-09-25T12:58:36;2.5;;;0.6;;
63953;SDS011;50128;52.094;5.232;2022-09-25T13:02:01;3.1;;;0.6;;
63953;SDS011;50128;52.094;5.232;2022-09-25T13:03:46;2.8;;;0.7;;
63953;SDS011;50128;52.094;5.232;2022-09-25T13:05:39;3.9;;;0.9;;
63953;SDS011;50128;52.094;5.232;2022-09-25T13:07:28;6.7;;;3.2;;
63953;SDS011;50128;52.094;5.232;2022-09-25T13:09:13;3.3;;;1.11;;
63953;SDS011;50128;52.094;5.232;2022-09-25T13:11:04;3.3;;;1.0;;
63953;SDS011;50128;52.094;5.232;2022-09-25T13:14:34;3.1;;;0.7;;
63953;SDS011;50128;52.094;5.232;2022-09-25T13:16:16;2.6;;;0.8;;
63953;SDS011;50128;52.094;5.232;2022-09-25T13:17:52;2.4;;;0.6;;
63953;SDS011;50128;52.094;5.232;2022-09-25T13:19:29;3.0;;;0.7;;
63953;SDS011;50128;52.094;5.232;2022-09-25T13:23:04;3.3;;;0.9;;
63953;SDS011;50128;52.094;5.232;2022-09-25T13:24:48;2.5;;;0.7;;
63953;SDS011;50128;52.094;5.232;2022-09-25T13:26:31;7.1;;;2.7;;